sensor_id;sensor_type;location;lat;lon;timestamp;P1;durP1;ratioP1;P2;durP2;ratioP2
1154;SDS011;566;48.414;9.118;2023-07-24T00:02:00;14.43;;;8.90;;
1154;SDS011;566;48.414;9.118;2023-07-24T00:04:25;14.45;;;9.23;;
1154;SDS011;566;48.414;9.118;2023-07-24T00:06:51;14.75;;;8.30;;
1154;SDS011;566;48.414;9.118;2023-07-24T00:09:17;14.20;;;8.40;;
1154;SDS011;566;48.414;9.118;2023-07-24T00:11:42;17.73;;;9.15;;
1154;SDS011;566;48.414;9.118;2023-07-24T00:14:08;14.25;;;8.75;;
1154;SDS011;566;48.414;9.118;2023-07-24T00:16:33;14.73;;;8.90;;
1154;SDS011;566;48.414;9.118;2023-07-24T00:18:59;16.48;;;9.25;;
1154;SDS011;566;48.414;9.118;2023-07-24T00:21:24;14.30;;;8.82;;
1154;SDS011;566;48.414;9.118;2023-07-24T00:23:50;15.75;;;9.52;;
1154;SDS011;566;48.414;9.118;2023-07-24T00:26:16;14.80;;;9.13;;
1154;SDS011;566;48.414;9.118;2023-07-24T00:28:42;14.50;;;8.35;;
1154;SDS011;566;48.414;9.118;2023-07-24T00:31:07;15.18;;;8.63;;
1154;SDS011;566;48.414;9.118;2023-07-24T00:33:37;15.98;;;8.90;;
1154;SDS011;566;48.414;9.118;2023-07-24T00:36:02;15.48;;;9.23;;
1154;SDS011;566;48.414;9.118;2023-07-24T00:38:28;15.35;;;9.00;;
1154;SDS011;566;48.414;9.118;2023-07-24T00:40:54;15.07;;;9.32;;
1154;SDS011;566;48.414;9.118;2023-07-24T00:43:19;15.95;;;9.20;;
1154;SDS011;566;48.414;9.118;2023-07-24T00:45:45;16.70;;;9.98;;
1154;SDS011;566;48.414;9.118;2023-07-24T00:48:12;12.82;;;8.13;;
1154;SDS011;566;48.414;9.118;2023-07-24T00:50:38;13.77;;;8.43;;
1154;SDS011;566;48.414;9.118;2023-07-24T00:53:05;13.98;;;8.45;;
1154;SDS011;566;48.414;9.118;2023-07-24T00:55:30;15.23;;;9.40;;
1154;SDS011;566;48.414;9.118;2023-07-24T00:57:59;14.60;;;8.80;;
1154;SDS011;566;48.414;9.118;2023-07-24T01:00:25;15.50;;;9.43;;
1154;SDS011;566;48.414;9.118;2023-07-24T01:02:51;14.75;;;9.35;;
1154;SDS011;566;48.414;9.118;2023-07-24T01:05:18;15.15;;;9.57;;
1154;SDS011;566;48.414;9.118;2023-07-24T01:07:44;15.20;;;9.00;;
1154;SDS011;566;48.414;9.118;2023-07-24T01:10:10;14.25;;;9.02;;
1154;SDS011;566;48.414;9.118;2023-07-24T01:12:41;14.38;;;9.50;;
1154;SDS011;566;48.414;9.118;2023-07-24T01:15:19;16.63;;;9.05;;
1154;SDS011;566;48.414;9.118;2023-07-24T01:17:50;14.30;;;9.48;;
1154;SDS011;566;48.414;9.118;2023-07-24T01:20:22;18.17;;;10.70;;
1154;SDS011;566;48.414;9.118;2023-07-24T01:23:04;14.27;;;8.55;;
1154;SDS011;566;48.414;9.118;2023-07-24T01:25:57;14.73;;;9.27;;
1154;SDS011;566;48.414;9.118;2023-07-24T01:30:50;17.58;;;9.27;;
1154;SDS011;566;48.414;9.118;2023-07-24T01:33:17;15.25;;;9.10;;
1154;SDS011;566;48.414;9.118;2023-07-24T01:35:43;17.52;;;8.75;;
1154;SDS011;566;48.414;9.118;2023-07-24T01:38:13;16.45;;;9.45;;
1154;SDS011;566;48.414;9.118;2023-07-24T01:40:39;14.15;;;9.05;;
1154;SDS011;566;48.414;9.118;2023-07-24T01:43:05;17.92;;;9.35;;
1154;SDS011;566;48.414;9.118;2023-07-24T01:45:31;16.40;;;9.55;;
1154;SDS011;566;48.414;9.118;2023-07-24T01:47:57;16.80;;;9.52;;
1154;SDS011;566;48.414;9.118;2023-07-24T01:50:23;14.85;;;9.57;;
1154;SDS011;566;48.414;9.118;2023-07-24T01:52:48;16.15;;;8.88;;
1154;SDS011;566;48.414;9.118;2023-07-24T01:55:14;18.20;;;9.57;;
1154;SDS011;566;48.414;9.118;2023-07-24T01:57:39;13.95;;;8.93;;
1154;SDS011;566;48.414;9.118;2023-07-24T02:00:05;15.20;;;9.00;;
1154;SDS011;566;48.414;9.118;2023-07-24T02:02:31;16.83;;;9.95;;
1154;SDS011;566;48.414;9.118;2023-07-24T02:04:57;15.07;;;9.57;;
1154;SDS011;566;48.414;9.118;2023-07-24T02:07:22;17.58;;;9.07;;
1154;SDS011;566;48.414;9.118;2023-07-24T02:09:48;19.95;;;9.65;;
1154;SDS011;566;48.414;9.118;2023-07-24T02:12:13;15.00;;;9.10;;
1154;SDS011;566;48.414;9.118;2023-07-24T02:14:39;16.35;;;9.48;;
1154;SDS011;566;48.414;9.118;2023-07-24T02:17:04;15.50;;;8.93;;
1154;SDS011;566;48.414;9.118;2023-07-24T02:19:30;18.20;;;10.07;;
1154;SDS011;566;48.414;9.118;2023-07-24T02:21:56;16.23;;;10.07;;
1154;SDS011;566;48.414;9.118;2023-07-24T02:24:21;17.02;;;10.07;;
1154;SDS011;566;48.414;9.118;2023-07-24T02:26:47;17.83;;;10.27;;
1154;SDS011;566;48.414;9.118;2023-07-24T02:29:12;16.58;;;10.15;;
1154;SDS011;566;48.414;9.118;2023-07-24T02:31:38;15.13;;;9.80;;
1154;SDS011;566;48.414;9.118;2023-07-24T02:34:03;15.75;;;9.70;;
1154;SDS011;566;48.414;9.118;2023-07-24T02:36:29;16.20;;;10.02;;
1154;SDS011;566;48.414;9.118;2023-07-24T02:38:54;16.60;;;10.23;;
1154;SDS011;566;48.414;9.118;2023-07-24T02:41:20;16.08;;;9.25;;
1154;SDS011;566;48.414;9.118;2023-07-24T02:43:45;16.80;;;9.98;;
1154;SDS011;566;48.414;9.118;2023-07-24T02:46:11;15.15;;;9.60;;
1154;SDS011;566;48.414;9.118;2023-07-24T02:48:37;16.38;;;10.20;;
1154;SDS011;566;48.414;9.118;2023-07-24T02:51:02;16.55;;;9.65;;
1154;SDS011;566;48.414;9.118;2023-07-24T02:53:28;16.98;;;9.45;;
1154;SDS011;566;48.414;9.118;2023-07-24T02:55:54;16.63;;;9.65;;
1154;SDS011;566;48.414;9.118;2023-07-24T02:58:19;18.30;;;9.35;;
1154;SDS011;566;48.414;9.118;2023-07-24T03:00:45;16.05;;;9.65;;
1154;SDS011;566;48.414;9.118;2023-07-24T03:03:10;17.52;;;9.45;;
1154;SDS011;566;48.414;9.118;2023-07-24T03:05:36;16.42;;;10.13;;
1154;SDS011;566;48.414;9.118;2023-07-24T03:08:01;16.10;;;9.68;;
1154;SDS011;566;48.414;9.118;2023-07-24T03:10:27;15.73;;;9.30;;
1154;SDS011;566;48.414;9.118;2023-07-24T03:12:53;16.05;;;9.68;;
1154;SDS011;566;48.414;9.118;2023-07-24T03:15:18;15.65;;;10.02;;
1154;SDS011;566;48.414;9.118;2023-07-24T03:17:44;15.05;;;9.75;;
1154;SDS011;566;48.414;9.118;2023-07-24T03:20:14;15.95;;;9.68;;
1154;SDS011;566;48.414;9.118;2023-07-24T03:22:42;17.83;;;10.25;;
1154;SDS011;566;48.414;9.118;2023-07-24T03:25:08;17.83;;;10.00;;
1154;SDS011;566;48.414;9.118;2023-07-24T03:27:33;16.60;;;10.07;;
1154;SDS011;566;48.414;9.118;2023-07-24T03:29:59;18.50;;;10.27;;
1154;SDS011;566;48.414;9.118;2023-07-24T03:32:25;16.85;;;10.18;;
1154;SDS011;566;48.414;9.118;2023-07-24T03:34:50;18.90;;;10.73;;
1154;SDS011;566;48.414;9.118;2023-07-24T03:37:16;15.77;;;9.90;;
1154;SDS011;566;48.414;9.118;2023-07-24T03:39:42;15.77;;;9.98;;
1154;SDS011;566;48.414;9.118;2023-07-24T03:42:09;16.13;;;9.88;;
1154;SDS011;566;48.414;9.118;2023-07-24T03:44:37;16.35;;;10.25;;
1154;SDS011;566;48.414;9.118;2023-07-24T03:47:06;18.73;;;10.27;;
1154;SDS011;566;48.414;9.118;2023-07-24T03:49:32;17.63;;;10.23;;
1154;SDS011;566;48.414;9.118;2023-07-24T03:51:57;15.48;;;9.07;;
1154;SDS011;566;48.414;9.118;2023-07-24T03:54:23;17.27;;;10.07;;
1154;SDS011;566;48.414;9.118;2023-07-24T03:56:48;16.25;;;9.43;;
1154;SDS011;566;48.414;9.118;2023-07-24T03:59:14;16.50;;;9.63;;
1154;SDS011;566;48.414;9.118;2023-07-24T04:01:39;15.25;;;9.55;;
1154;SDS011;566;48.414;9.118;2023-07-24T04:04:05;18.30;;;10.23;;
1154;SDS011;566;48.414;9.118;2023-07-24T04:06:31;17.35;;;10.38;;
1154;SDS011;566;48.414;9.118;2023-07-24T04:08:56;15.48;;;9.48;;
1154;SDS011;566;48.414;9.118;2023-07-24T04:11:22;15.48;;;9.52;;
1154;SDS011;566;48.414;9.118;2023-07-24T04:13:47;15.00;;;9.48;;
1154;SDS011;566;48.414;9.118;2023-07-24T04:16:13;17.67;;;9.95;;
1154;SDS011;566;48.414;9.118;2023-07-24T04:18:38;16.17;;;9.65;;
1154;SDS011;566;48.414;9.118;2023-07-24T04:21:04;14.70;;;9.32;;
1154;SDS011;566;48.414;9.118;2023-07-24T04:23:29;16.60;;;9.40;;
1154;SDS011;566;48.414;9.118;2023-07-24T04:25:55;16.48;;;9.98;;
1154;SDS011;566;48.414;9.118;2023-07-24T04:28:20;18.90;;;10.25;;
1154;SDS011;566;48.414;9.118;2023-07-24T04:30:46;16.10;;;10.32;;
1154;SDS011;566;48.414;9.118;2023-07-24T04:33:11;15.57;;;9.68;;
1154;SDS011;566;48.414;9.118;2023-07-24T04:35:37;14.73;;;9.32;;
1154;SDS011;566;48.414;9.118;2023-07-24T04:38:02;14.48;;;9.18;;
1154;SDS011;566;48.414;9.118;2023-07-24T04:40:28;17.98;;;9.70;;
1154;SDS011;566;48.414;9.118;2023-07-24T04:42:54;17.85;;;10.02;;
1154;SDS011;566;48.414;9.118;2023-07-24T04:45:19;16.02;;;9.93;;
1154;SDS011;566;48.414;9.118;2023-07-24T04:47:45;16.50;;;9.93;;
1154;SDS011;566;48.414;9.118;2023-07-24T04:50:11;18.40;;;9.38;;
1154;SDS011;566;48.414;9.118;2023-07-24T04:52:36;15.07;;;9.27;;
1154;SDS011;566;48.414;9.118;2023-07-24T04:55:02;14.80;;;8.98;;
1154;SDS011;566;48.414;9.118;2023-07-24T04:57:28;15.43;;;9.40;;
1154;SDS011;566;48.414;9.118;2023-07-24T04:59:53;17.02;;;9.80;;
1154;SDS011;566;48.414;9.118;2023-07-24T05:02:19;14.23;;;8.98;;
1154;SDS011;566;48.414;9.118;2023-07-24T05:04:44;15.32;;;9.15;;
1154;SDS011;566;48.414;9.118;2023-07-24T05:07:10;14.13;;;8.90;;
1154;SDS011;566;48.414;9.118;2023-07-24T05:09:35;14.52;;;9.25;;
1154;SDS011;566;48.414;9.118;2023-07-24T05:12:01;15.65;;;8.93;;
1154;SDS011;566;48.414;9.118;2023-07-24T05:14:26;16.55;;;9.25;;
1154;SDS011;566;48.414;9.118;2023-07-24T05:16:52;13.40;;;8.07;;
1154;SDS011;566;48.414;9.118;2023-07-24T05:19:18;15.20;;;8.27;;
1154;SDS011;566;48.414;9.118;2023-07-24T05:21:43;19.02;;;10.07;;
1154;SDS011;566;48.414;9.118;2023-07-24T05:24:09;23.65;;;15.13;;
1154;SDS011;566;48.414;9.118;2023-07-24T05:26:34;23.80;;;13.52;;
1154;SDS011;566;48.414;9.118;2023-07-24T05:29:00;27.38;;;12.48;;
1154;SDS011;566;48.414;9.118;2023-07-24T05:31:25;21.98;;;12.13;;
1154;SDS011;566;48.414;9.118;2023-07-24T05:33:51;24.73;;;14.07;;
1154;SDS011;566;48.414;9.118;2023-07-24T05:36:16;23.30;;;14.48;;
1154;SDS011;566;48.414;9.118;2023-07-24T05:38:42;23.40;;;12.43;;
1154;SDS011;566;48.414;9.118;2023-07-24T05:41:07;21.50;;;11.82;;
1154;SDS011;566;48.414;9.118;2023-07-24T05:43:33;20.35;;;12.13;;
1154;SDS011;566;48.414;9.118;2023-07-24T05:45:59;21.30;;;11.15;;
1154;SDS011;566;48.414;9.118;2023-07-24T05:48:24;22.90;;;11.90;;
1154;SDS011;566;48.414;9.118;2023-07-24T05:50:50;21.27;;;11.82;;
1154;SDS011;566;48.414;9.118;2023-07-24T05:53:16;17.92;;;10.43;;
1154;SDS011;566;48.414;9.118;2023-07-24T05:55:42;17.55;;;10.13;;
1154;SDS011;566;48.414;9.118;2023-07-24T05:58:08;16.42;;;9.85;;
1154;SDS011;566;48.414;9.118;2023-07-24T06:00:34;17.23;;;10.25;;
1154;SDS011;566;48.414;9.118;2023-07-24T06:03:01;16.17;;;9.48;;
1154;SDS011;566;48.414;9.118;2023-07-24T06:05:27;17.73;;;9.20;;
1154;SDS011;566;48.414;9.118;2023-07-24T06:07:53;14.45;;;9.10;;
1154;SDS011;566;48.414;9.118;2023-07-24T06:10:18;14.65;;;8.90;;
1154;SDS011;566;48.414;9.118;2023-07-24T06:12:44;14.13;;;8.68;;
1154;SDS011;566;48.414;9.118;2023-07-24T06:15:09;15.13;;;8.80;;
1154;SDS011;566;48.414;9.118;2023-07-24T06:17:35;16.13;;;8.88;;
1154;SDS011;566;48.414;9.118;2023-07-24T06:20:01;15.48;;;8.32;;
1154;SDS011;566;48.414;9.118;2023-07-24T06:22:26;16.20;;;8.63;;
1154;SDS011;566;48.414;9.118;2023-07-24T06:24:52;15.85;;;8.95;;
1154;SDS011;566;48.414;9.118;2023-07-24T06:27:17;15.32;;;8.27;;
1154;SDS011;566;48.414;9.118;2023-07-24T06:29:43;13.35;;;8.55;;
1154;SDS011;566;48.414;9.118;2023-07-24T06:32:08;13.90;;;8.63;;
1154;SDS011;566;48.414;9.118;2023-07-24T06:34:34;13.10;;;8.82;;
1154;SDS011;566;48.414;9.118;2023-07-24T06:37:00;17.85;;;9.60;;
1154;SDS011;566;48.414;9.118;2023-07-24T06:39:25;15.07;;;9.23;;
1154;SDS011;566;48.414;9.118;2023-07-24T06:41:51;12.27;;;8.48;;
1154;SDS011;566;48.414;9.118;2023-07-24T06:44:17;14.45;;;7.68;;
1154;SDS011;566;48.414;9.118;2023-07-24T06:46:43;13.13;;;7.40;;
1154;SDS011;566;48.414;9.118;2023-07-24T06:49:09;12.95;;;7.43;;
1154;SDS011;566;48.414;9.118;2023-07-24T06:51:36;13.30;;;7.68;;
1154;SDS011;566;48.414;9.118;2023-07-24T06:54:03;12.30;;;7.65;;
1154;SDS011;566;48.414;9.118;2023-07-24T06:56:29;14.00;;;7.60;;
1154;SDS011;566;48.414;9.118;2023-07-24T06:58:55;11.80;;;7.32;;
1154;SDS011;566;48.414;9.118;2023-07-24T07:01:20;11.05;;;6.65;;
1154;SDS011;566;48.414;9.118;2023-07-24T07:03:46;15.20;;;6.88;;
1154;SDS011;566;48.414;9.118;2023-07-24T07:06:11;13.18;;;7.00;;
1154;SDS011;566;48.414;9.118;2023-07-24T07:08:37;13.30;;;7.13;;
1154;SDS011;566;48.414;9.118;2023-07-24T07:11:03;11.77;;;6.70;;
1154;SDS011;566;48.414;9.118;2023-07-24T07:13:28;12.88;;;7.40;;
1154;SDS011;566;48.414;9.118;2023-07-24T07:15:54;12.38;;;6.93;;
1154;SDS011;566;48.414;9.118;2023-07-24T07:18:19;14.35;;;7.45;;
1154;SDS011;566;48.414;9.118;2023-07-24T07:20:45;11.38;;;6.72;;
1154;SDS011;566;48.414;9.118;2023-07-24T07:23:12;10.93;;;6.25;;
1154;SDS011;566;48.414;9.118;2023-07-24T07:25:38;11.80;;;5.90;;
1154;SDS011;566;48.414;9.118;2023-07-24T07:28:03;9.80;;;5.82;;
1154;SDS011;566;48.414;9.118;2023-07-24T07:30:29;8.82;;;5.00;;
1154;SDS011;566;48.414;9.118;2023-07-24T07:32:54;9.90;;;6.05;;
1154;SDS011;566;48.414;9.118;2023-07-24T07:35:20;11.70;;;4.97;;
1154;SDS011;566;48.414;9.118;2023-07-24T07:37:45;9.57;;;5.40;;
1154;SDS011;566;48.414;9.118;2023-07-24T07:40:11;9.10;;;5.43;;
1154;SDS011;566;48.414;9.118;2023-07-24T07:42:36;8.98;;;5.45;;
1154;SDS011;566;48.414;9.118;2023-07-24T07:45:02;8.95;;;5.30;;
1154;SDS011;566;48.414;9.118;2023-07-24T07:47:28;9.50;;;5.53;;
1154;SDS011;566;48.414;9.118;2023-07-24T07:49:54;9.45;;;5.32;;
1154;SDS011;566;48.414;9.118;2023-07-24T07:52:19;8.93;;;5.43;;
1154;SDS011;566;48.414;9.118;2023-07-24T07:54:47;10.52;;;5.82;;
1154;SDS011;566;48.414;9.118;2023-07-24T07:57:13;8.82;;;5.22;;
1154;SDS011;566;48.414;9.118;2023-07-24T07:59:39;8.50;;;5.05;;
1154;SDS011;566;48.414;9.118;2023-07-24T08:02:05;9.45;;;5.70;;
1154;SDS011;566;48.414;9.118;2023-07-24T08:04:31;7.90;;;5.10;;
1154;SDS011;566;48.414;9.118;2023-07-24T08:06:57;9.90;;;5.80;;
1154;SDS011;566;48.414;9.118;2023-07-24T08:09:22;9.07;;;5.57;;
1154;SDS011;566;48.414;9.118;2023-07-24T08:11:49;8.35;;;4.80;;
1154;SDS011;566;48.414;9.118;2023-07-24T08:14:15;8.55;;;5.20;;
1154;SDS011;566;48.414;9.118;2023-07-24T08:16:41;11.05;;;5.32;;
1154;SDS011;566;48.414;9.118;2023-07-24T08:19:06;9.15;;;5.38;;
1154;SDS011;566;48.414;9.118;2023-07-24T08:21:32;9.13;;;5.47;;
1154;SDS011;566;48.414;9.118;2023-07-24T08:23:57;8.93;;;5.10;;
1154;SDS011;566;48.414;9.118;2023-07-24T08:26:24;10.50;;;5.72;;
1154;SDS011;566;48.414;9.118;2023-07-24T08:28:51;9.45;;;5.50;;
1154;SDS011;566;48.414;9.118;2023-07-24T08:31:17;10.25;;;6.07;;
1154;SDS011;566;48.414;9.118;2023-07-24T08:33:42;10.15;;;6.03;;
1154;SDS011;566;48.414;9.118;2023-07-24T08:36:08;9.80;;;6.20;;
1154;SDS011;566;48.414;9.118;2023-07-24T08:38:36;10.55;;;6.25;;
1154;SDS011;566;48.414;9.118;2023-07-24T08:41:06;11.52;;;6.55;;
1154;SDS011;566;48.414;9.118;2023-07-24T08:43:36;9.95;;;6.28;;
1154;SDS011;566;48.414;9.118;2023-07-24T08:46:03;9.98;;;6.10;;
1154;SDS011;566;48.414;9.118;2023-07-24T08:48:30;10.40;;;6.32;;
1154;SDS011;566;48.414;9.118;2023-07-24T08:51:03;11.57;;;6.47;;
1154;SDS011;566;48.414;9.118;2023-07-24T08:53:30;10.57;;;5.90;;
1154;SDS011;566;48.414;9.118;2023-07-24T08:56:02;10.40;;;5.78;;
1154;SDS011;566;48.414;9.118;2023-07-24T08:58:28;10.60;;;6.22;;
1154;SDS011;566;48.414;9.118;2023-07-24T09:00:55;10.48;;;6.47;;
1154;SDS011;566;48.414;9.118;2023-07-24T09:03:22;9.70;;;6.30;;
1154;SDS011;566;48.414;9.118;2023-07-24T09:05:47;9.85;;;6.22;;
1154;SDS011;566;48.414;9.118;2023-07-24T09:08:13;10.73;;;6.30;;
1154;SDS011;566;48.414;9.118;2023-07-24T09:10:39;10.15;;;5.55;;
1154;SDS011;566;48.414;9.118;2023-07-24T09:13:04;11.70;;;6.30;;
1154;SDS011;566;48.414;9.118;2023-07-24T09:15:43;11.95;;;6.18;;
1154;SDS011;566;48.414;9.118;2023-07-24T09:18:09;10.15;;;6.03;;
1154;SDS011;566;48.414;9.118;2023-07-24T09:20:38;10.20;;;5.85;;
1154;SDS011;566;48.414;9.118;2023-07-24T09:23:05;11.55;;;5.82;;
1154;SDS011;566;48.414;9.118;2023-07-24T09:25:32;10.18;;;5.63;;
1154;SDS011;566;48.414;9.118;2023-07-24T09:27:58;9.57;;;5.95;;
1154;SDS011;566;48.414;9.118;2023-07-24T09:30:24;8.70;;;5.25;;
1154;SDS011;566;48.414;9.118;2023-07-24T09:32:53;10.25;;;6.13;;
1154;SDS011;566;48.414;9.118;2023-07-24T09:35:19;9.73;;;6.00;;
1154;SDS011;566;48.414;9.118;2023-07-24T09:37:45;8.93;;;5.40;;
1154;SDS011;566;48.414;9.118;2023-07-24T09:40:12;9.98;;;5.75;;
1154;SDS011;566;48.414;9.118;2023-07-24T09:42:40;10.02;;;5.35;;
1154;SDS011;566;48.414;9.118;2023-07-24T09:45:06;9.38;;;5.55;;
1154;SDS011;566;48.414;9.118;2023-07-24T09:47:39;9.80;;;5.78;;
1154;SDS011;566;48.414;9.118;2023-07-24T09:50:05;9.15;;;5.90;;
1154;SDS011;566;48.414;9.118;2023-07-24T09:52:31;9.32;;;5.32;;
1154;SDS011;566;48.414;9.118;2023-07-24T09:55:09;8.95;;;5.53;;
1154;SDS011;566;48.414;9.118;2023-07-24T09:57:40;8.60;;;5.68;;
1154;SDS011;566;48.414;9.118;2023-07-24T10:00:09;10.18;;;5.72;;
1154;SDS011;566;48.414;9.118;2023-07-24T10:02:36;12.30;;;6.03;;
1154;SDS011;566;48.414;9.118;2023-07-24T10:05:02;9.77;;;6.03;;
1154;SDS011;566;48.414;9.118;2023-07-24T10:07:31;9.00;;;5.63;;
1154;SDS011;566;48.414;9.118;2023-07-24T10:09:57;10.05;;;6.28;;
1154;SDS011;566;48.414;9.118;2023-07-24T10:12:23;9.55;;;5.72;;
1154;SDS011;566;48.414;9.118;2023-07-24T10:14:52;12.35;;;6.55;;
1154;SDS011;566;48.414;9.118;2023-07-24T10:17:35;11.30;;;6.35;;
1154;SDS011;566;48.414;9.118;2023-07-24T10:20:06;11.23;;;6.90;;
1154;SDS011;566;48.414;9.118;2023-07-24T10:22:33;14.45;;;7.93;;
1154;SDS011;566;48.414;9.118;2023-07-24T10:25:00;12.15;;;6.65;;
1154;SDS011;566;48.414;9.118;2023-07-24T10:27:26;12.65;;;7.57;;
1154;SDS011;566;48.414;9.118;2023-07-24T10:29:59;12.45;;;7.28;;
1154;SDS011;566;48.414;9.118;2023-07-24T10:32:25;14.88;;;7.93;;
1154;SDS011;566;48.414;9.118;2023-07-24T10:35:06;14.43;;;7.55;;
1154;SDS011;566;48.414;9.118;2023-07-24T10:37:36;12.95;;;7.38;;
1154;SDS011;566;48.414;9.118;2023-07-24T10:40:03;14.82;;;8.10;;
1154;SDS011;566;48.414;9.118;2023-07-24T10:42:29;12.65;;;7.28;;
1154;SDS011;566;48.414;9.118;2023-07-24T10:45:05;13.82;;;8.27;;
1154;SDS011;566;48.414;9.118;2023-07-24T10:47:32;11.68;;;7.47;;
1154;SDS011;566;48.414;9.118;2023-07-24T10:49:57;12.18;;;8.07;;
1154;SDS011;566;48.414;9.118;2023-07-24T10:52:30;11.55;;;6.95;;
1154;SDS011;566;48.414;9.118;2023-07-24T10:54:59;94.57;;;49.08;;
1154;SDS011;566;48.414;9.118;2023-07-24T10:57:26;35.45;;;18.13;;
1154;SDS011;566;48.414;9.118;2023-07-24T10:59:52;29.40;;;14.25;;
1154;SDS011;566;48.414;9.118;2023-07-24T11:02:18;60.67;;;33.08;;
1154;SDS011;566;48.414;9.118;2023-07-24T11:04:44;33.58;;;17.80;;
1154;SDS011;566;48.414;9.118;2023-07-24T11:07:10;27.33;;;14.60;;
1154;SDS011;566;48.414;9.118;2023-07-24T11:09:36;13.25;;;8.75;;
1154;SDS011;566;48.414;9.118;2023-07-24T11:12:11;16.48;;;9.32;;
1154;SDS011;566;48.414;9.118;2023-07-24T11:14:50;12.88;;;7.85;;
1154;SDS011;566;48.414;9.118;2023-07-24T11:17:20;13.38;;;7.85;;
1154;SDS011;566;48.414;9.118;2023-07-24T11:19:46;12.13;;;7.47;;
1154;SDS011;566;48.414;9.118;2023-07-24T11:22:12;11.63;;;7.35;;
1154;SDS011;566;48.414;9.118;2023-07-24T11:24:45;10.50;;;6.60;;
1154;SDS011;566;48.414;9.118;2023-07-24T11:27:15;11.52;;;6.40;;
1154;SDS011;566;48.414;9.118;2023-07-24T11:29:51;11.27;;;6.68;;
1154;SDS011;566;48.414;9.118;2023-07-24T11:32:17;11.25;;;6.97;;
1154;SDS011;566;48.414;9.118;2023-07-24T11:34:49;10.60;;;6.70;;
1154;SDS011;566;48.414;9.118;2023-07-24T11:37:17;11.05;;;6.72;;
1154;SDS011;566;48.414;9.118;2023-07-24T11:39:54;10.55;;;6.13;;
1154;SDS011;566;48.414;9.118;2023-07-24T11:42:21;8.40;;;5.30;;
1154;SDS011;566;48.414;9.118;2023-07-24T11:44:49;9.15;;;5.78;;
1154;SDS011;566;48.414;9.118;2023-07-24T11:47:14;8.80;;;5.15;;
1154;SDS011;566;48.414;9.118;2023-07-24T11:49:40;8.60;;;5.00;;
1154;SDS011;566;48.414;9.118;2023-07-24T11:52:12;8.75;;;5.13;;
1154;SDS011;566;48.414;9.118;2023-07-24T11:54:38;8.02;;;4.57;;
1154;SDS011;566;48.414;9.118;2023-07-24T11:57:04;7.80;;;4.72;;
1154;SDS011;566;48.414;9.118;2023-07-24T11:59:40;8.60;;;5.10;;
1154;SDS011;566;48.414;9.118;2023-07-24T12:02:08;8.75;;;4.65;;
1154;SDS011;566;48.414;9.118;2023-07-24T12:04:35;8.98;;;4.88;;
1154;SDS011;566;48.414;9.118;2023-07-24T12:07:01;7.82;;;4.60;;
1154;SDS011;566;48.414;9.118;2023-07-24T12:09:32;8.55;;;4.38;;
1154;SDS011;566;48.414;9.118;2023-07-24T12:11:58;7.55;;;4.72;;
1154;SDS011;566;48.414;9.118;2023-07-24T12:14:23;7.80;;;4.63;;
1154;SDS011;566;48.414;9.118;2023-07-24T12:16:53;7.00;;;4.20;;
1154;SDS011;566;48.414;9.118;2023-07-24T12:19:25;6.68;;;4.25;;
1154;SDS011;566;48.414;9.118;2023-07-24T12:21:51;8.25;;;4.72;;
1154;SDS011;566;48.414;9.118;2023-07-24T12:24:17;7.32;;;4.00;;
1154;SDS011;566;48.414;9.118;2023-07-24T12:26:42;9.02;;;4.30;;
1154;SDS011;566;48.414;9.118;2023-07-24T12:29:08;7.20;;;4.10;;
1154;SDS011;566;48.414;9.118;2023-07-24T12:31:33;8.38;;;3.90;;
1154;SDS011;566;48.414;9.118;2023-07-24T12:33:59;7.20;;;4.25;;
1154;SDS011;566;48.414;9.118;2023-07-24T12:36:24;7.38;;;4.13;;
1154;SDS011;566;48.414;9.118;2023-07-24T12:38:50;7.63;;;3.53;;
1154;SDS011;566;48.414;9.118;2023-07-24T12:41:16;6.72;;;3.40;;
1154;SDS011;566;48.414;9.118;2023-07-24T12:43:42;5.78;;;3.00;;
1154;SDS011;566;48.414;9.118;2023-07-24T12:46:09;6.20;;;3.45;;
1154;SDS011;566;48.414;9.118;2023-07-24T12:48:34;6.13;;;3.42;;
1154;SDS011;566;48.414;9.118;2023-07-24T12:51:01;6.75;;;3.60;;
1154;SDS011;566;48.414;9.118;2023-07-24T12:53:28;7.25;;;3.50;;
1154;SDS011;566;48.414;9.118;2023-07-24T12:55:54;6.00;;;3.40;;
1154;SDS011;566;48.414;9.118;2023-07-24T12:58:19;5.85;;;3.00;;
1154;SDS011;566;48.414;9.118;2023-07-24T13:00:45;5.72;;;3.30;;
1154;SDS011;566;48.414;9.118;2023-07-24T13:03:10;7.03;;;3.13;;
1154;SDS011;566;48.414;9.118;2023-07-24T13:05:36;6.22;;;3.30;;
1154;SDS011;566;48.414;9.118;2023-07-24T13:08:03;5.70;;;3.22;;
1154;SDS011;566;48.414;9.118;2023-07-24T13:10:29;6.55;;;3.42;;
1154;SDS011;566;48.414;9.118;2023-07-24T13:12:54;5.70;;;3.28;;
1154;SDS011;566;48.414;9.118;2023-07-24T13:15:20;6.15;;;3.72;;
1154;SDS011;566;48.414;9.118;2023-07-24T13:17:46;6.13;;;3.55;;
1154;SDS011;566;48.414;9.118;2023-07-24T13:20:13;8.02;;;3.65;;
1154;SDS011;566;48.414;9.118;2023-07-24T13:22:38;5.07;;;3.17;;
1154;SDS011;566;48.414;9.118;2023-07-24T13:25:04;6.68;;;3.50;;
1154;SDS011;566;48.414;9.118;2023-07-24T13:27:30;5.93;;;3.42;;
1154;SDS011;566;48.414;9.118;2023-07-24T13:29:55;7.07;;;3.60;;
1154;SDS011;566;48.414;9.118;2023-07-24T13:32:21;7.88;;;3.90;;
1154;SDS011;566;48.414;9.118;2023-07-24T13:34:46;8.52;;;4.05;;
1154;SDS011;566;48.414;9.118;2023-07-24T13:37:12;6.25;;;3.60;;
1154;SDS011;566;48.414;9.118;2023-07-24T13:39:38;7.65;;;3.90;;
1154;SDS011;566;48.414;9.118;2023-07-24T13:42:04;7.78;;;4.43;;
1154;SDS011;566;48.414;9.118;2023-07-24T13:44:30;7.10;;;4.07;;
1154;SDS011;566;48.414;9.118;2023-07-24T13:46:56;6.30;;;3.70;;
1154;SDS011;566;48.414;9.118;2023-07-24T13:49:21;7.43;;;4.10;;
1154;SDS011;566;48.414;9.118;2023-07-24T13:51:47;10.52;;;4.18;;
1154;SDS011;566;48.414;9.118;2023-07-24T13:54:13;7.30;;;4.10;;
1154;SDS011;566;48.414;9.118;2023-07-24T13:56:38;7.45;;;4.13;;
1154;SDS011;566;48.414;9.118;2023-07-24T13:59:04;7.00;;;3.97;;
1154;SDS011;566;48.414;9.118;2023-07-24T14:01:29;6.85;;;3.78;;
1154;SDS011;566;48.414;9.118;2023-07-24T14:03:55;7.07;;;4.07;;
1154;SDS011;566;48.414;9.118;2023-07-24T14:06:21;7.78;;;3.40;;
1154;SDS011;566;48.414;9.118;2023-07-24T14:08:46;7.35;;;4.30;;
1154;SDS011;566;48.414;9.118;2023-07-24T14:11:12;7.43;;;4.00;;
1154;SDS011;566;48.414;9.118;2023-07-24T14:13:37;6.50;;;4.10;;
1154;SDS011;566;48.414;9.118;2023-07-24T14:16:03;8.30;;;4.13;;
1154;SDS011;566;48.414;9.118;2023-07-24T14:18:29;9.95;;;4.45;;
1154;SDS011;566;48.414;9.118;2023-07-24T14:20:54;13.68;;;5.25;;
1154;SDS011;566;48.414;9.118;2023-07-24T14:23:21;7.57;;;4.55;;
1154;SDS011;566;48.414;9.118;2023-07-24T14:25:47;11.10;;;5.80;;
1154;SDS011;566;48.414;9.118;2023-07-24T14:28:13;8.95;;;5.10;;
1154;SDS011;566;48.414;9.118;2023-07-24T14:30:38;8.00;;;4.90;;
1154;SDS011;566;48.414;9.118;2023-07-24T14:33:04;10.90;;;5.90;;
1154;SDS011;566;48.414;9.118;2023-07-24T14:35:29;8.00;;;5.03;;
1154;SDS011;566;48.414;9.118;2023-07-24T14:37:55;9.15;;;5.10;;
1154;SDS011;566;48.414;9.118;2023-07-24T14:40:20;10.05;;;5.60;;
1154;SDS011;566;48.414;9.118;2023-07-24T14:42:46;9.73;;;5.90;;
1154;SDS011;566;48.414;9.118;2023-07-24T14:45:14;10.68;;;5.78;;
1154;SDS011;566;48.414;9.118;2023-07-24T14:47:40;10.18;;;6.10;;
1154;SDS011;566;48.414;9.118;2023-07-24T14:50:05;9.40;;;6.15;;
1154;SDS011;566;48.414;9.118;2023-07-24T14:52:32;11.85;;;5.80;;
1154;SDS011;566;48.414;9.118;2023-07-24T14:54:58;10.65;;;5.88;;
1154;SDS011;566;48.414;9.118;2023-07-24T14:57:28;12.38;;;6.03;;
1154;SDS011;566;48.414;9.118;2023-07-24T14:59:56;9.35;;;5.53;;
1154;SDS011;566;48.414;9.118;2023-07-24T15:02:22;8.45;;;5.28;;
1154;SDS011;566;48.414;9.118;2023-07-24T15:04:47;9.35;;;5.93;;
1154;SDS011;566;48.414;9.118;2023-07-24T15:07:13;9.13;;;4.90;;
1154;SDS011;566;48.414;9.118;2023-07-24T15:09:38;8.20;;;4.97;;
1154;SDS011;566;48.414;9.118;2023-07-24T15:12:04;9.45;;;5.35;;
1154;SDS011;566;48.414;9.118;2023-07-24T15:14:30;9.35;;;4.80;;
1154;SDS011;566;48.414;9.118;2023-07-24T15:16:56;7.07;;;4.10;;